Etusivu
METAR-TAF:

METAR-TAF

Lentoasemat :

Bryce Canyon, Utah, Yhdysvallat

Leveyspiiri: 37-42-23N, Pituuspiiri: 112-08-44W, korkeus merenpinnasta: 2312 m

Tämänhetkinen sää

Tämä raportti tehtiin 14 minuuttia sitten, kello 22.53 UTC
Tuuli 15 kn etelästä puuskistuen 24 kn:hen
Lämpötila 14°C
Kosteus 31%
Ilmanpaine 1017 hPa
Näkyvyys: 16.1 km
Muutamia pilviä 9000 ft:n korkeudessa

METAR: KBCE 252253Z AUTO 18015G24KT 10SM FEW090 14/M03 A3002 RMK AO2 SLP092 T01441033

Aika: 17:07 (23:07 UTC)

Sääennuste

Tämä raportti tehtiin 1 tunti ja 44 minuuttia sitten, kello 21.23 UTC
Ennuste voimassa 25. päivästä klo 21 UTC - 26. päivään klo 18 UTC
Tuuli 12 kn etelästä puuskistuen 20 kn:hen
Näkyvyys: 10 km
Hajanaisia pilviä 8000 ft:n korkeudessa
Hajanaisia pilviä 12000 ft:n korkeudessa
From 26. päivästä klo 0200 UTC
Tuuli 8 kn etelästä/lounaasta
Näkyvyys: 10 km
Hajanaisia pilviä 15000 ft:n korkeudessa

TAF: KBCE 252123Z 2521/2618 18012G20KT P6SM SCT080 SCT120 FM260200 21008KT P6SM SCT150

Säähavainnot ja -ennusteet yli 4000 lentoasemalta (METAR- ja TAF-raportit).

Käytössä olevat sääasemat on merkitty karttaan keltaisilla ja punaisilla pisteillä.

Aseta hiiri pisteen päälle nähdäksesi sääaseman nimen.

Klikkaa sitten nähdäksesi säähavainnot ja -ennusteet.

Kartan vaihtaminen: klikkaa mustalla rastilla varustettuja vihreitä pisteitä, niin voit zoomata sisään; viivalla varustettua vihreää pistettä, niin voit zoomata ulos tai vihreitä nuolia, niin pääset viereisille kartoille.


METAR-TAF: